Time;durP1;ratioP1;P1;durP2;ratioP2;P2;SDS_P1;SDS_P2;PMS_P1;PMS_P2;Temp;Humidity;BMP_temperature;BMP_pressure;BME280_temperature;BME280_humidity;BME280_pressure;Samples;Min_cycle;Max_cycle;Signal;HPM_P1;HPM_P2
2022/06/27 04:01:28;;;;;;;4.40;4.00;;;24.30;96.30;;;;;;5540896;22;20506;-79
2022/06/27 04:03:53;;;;;;;5.30;3.47;;;24.40;96.30;;;;;;5001193;28;20420;-79
2022/06/27 04:06:19;;;;;;;4.37;3.90;;;24.90;96.30;;;;;;4982923;28;20663;-79
2022/06/27 04:08:44;;;;;;;7.40;3.90;;;24.80;96.30;;;;;;4982437;28;20633;-79
2022/06/27 04:11:10;;;;;;;4.60;4.20;;;24.30;96.30;;;;;;4999785;28;20197;-79
2022/06/27 04:13:35;;;;;;;4.30;4.00;;;24.20;96.30;;;;;;5001600;28;20200;-79
2022/06/27 04:16:01;;;;;;;4.37;3.97;;;24.50;96.30;;;;;;4997819;28;20856;-78
2022/06/27 04:18:26;;;;;;;4.93;4.40;;;25.00;96.30;;;;;;4977955;28;20185;-77
2022/06/27 05:02:18;;;;;;;3.90;3.43;;;29.50;84.50;;;;;;5605594;23;20614;-78
2022/06/27 05:04:44;;;;;;;4.07;3.70;;;28.30;87.20;;;;;;4977910;28;20947;-79
2022/06/27 05:07:10;;;;;;;6.20;3.50;;;27.30;90.80;;;;;;4995609;28;20197;-79
2022/06/27 05:09:35;;;;;;;3.70;3.10;;;26.70;92.80;;;;;;4990723;28;20239;-79
2022/06/27 05:12:01;;;;;;;5.00;3.77;;;26.30;94.50;;;;;;4985139;28;20197;-79
2022/06/27 05:14:26;;;;;;;4.17;3.77;;;26.10;95.00;;;;;;4979008;28;20188;-79
2022/06/27 05:16:52;;;;;;;6.17;3.30;;;25.40;96.30;;;;;;4978999;28;20237;-80
2022/06/27 05:19:17;;;;;;;3.17;2.87;;;25.50;96.30;;;;;;4975670;28;20711;-79
2022/06/27 05:21:44;;;;;;;5.40;3.40;;;25.70;96.30;;;;;;4958060;28;20201;-79
2022/06/27 05:24:10;;;;;;;3.70;3.40;;;26.20;96.30;;;;;;4975789;28;20264;-79
2022/06/27 05:26:36;;;;;;;4.80;3.43;;;26.60;96.20;;;;;;4973001;28;20424;-79
2022/06/27 05:29:02;;;;;;;9.07;3.60;;;27.00;94.50;;;;;;4973851;28;20414;-81
2022/06/27 05:31:28;;;;;;;3.93;3.07;;;27.30;93.30;;;;;;4971186;28;20224;-79
2022/06/27 05:33:53;;;;;;;5.60;3.30;;;27.80;91.20;;;;;;4966228;28;20186;-79
2022/06/27 05:36:20;;;;;;;3.33;2.70;;;28.50;88.20;;;;;;4955787;29;20174;-79
2022/06/27 05:38:46;;;;;;;4.27;2.60;;;28.10;86.00;;;;;;4955280;29;20166;-79
2022/06/27 05:41:12;;;;;;;2.73;2.53;;;28.20;86.10;;;;;;4969291;28;20449;-79
2022/06/27 05:43:38;;;;;;;2.70;2.50;;;27.80;85.00;;;;;;4967616;28;20192;-81
2022/06/27 05:46:04;;;;;;;3.97;3.10;;;27.60;86.60;;;;;;4962213;28;20246;-81
2022/06/27 05:48:31;;;;;;;2.93;2.67;;;27.50;87.30;;;;;;4962999;28;20449;-80
2022/06/27 05:50:59;;;;;;;8.60;3.03;;;27.70;85.70;;;;;;4958950;28;20289;-80
2022/06/27 05:53:25;;;;;;;3.30;2.60;;;27.90;86.00;;;;;;4982308;28;20417;-80
2022/06/27 05:55:51;;;;;;;2.87;2.50;;;29.30;83.20;;;;;;4998286;28;20405;-81
2022/06/27 05:58:18;;;;;;;4.77;2.50;;;29.90;80.80;;;;;;4977561;28;20991;-80
2022/06/27 06:00:44;;;;;;;3.40;2.53;;;30.30;78.50;;;;;;4994872;28;20193;-80
2022/06/27 06:03:09;;;;;;;2.57;2.10;;;29.50;79.40;;;;;;4976079;28;20512;-80
2022/06/27 06:05:35;;;;;;;3.10;2.60;;;28.90;80.90;;;;;;4976943;28;20178;-80
2022/06/27 06:08:02;;;;;;;3.93;2.00;;;28.90;81.50;;;;;;4975640;28;20284;-81
2022/06/27 06:10:29;;;;;;;3.13;2.00;;;28.70;81.90;;;;;;4975032;28;20182;-80
2022/06/27 06:12:55;;;;;;;3.10;2.20;;;28.60;82.70;;;;;;4958542;28;20433;-80
2022/06/27 06:15:21;;;;;;;3.13;2.20;;;28.40;83.00;;;;;;4975718;28;20440;-80
2022/06/27 06:17:47;;;;;;;4.03;2.40;;;28.30;83.80;;;;;;4975229;28;20424;-80
2022/06/27 06:20:14;;;;;;;2.10;1.90;;;27.90;84.00;;;;;;4975428;28;20716;-80
2022/06/27 06:22:40;;;;;;;6.73;2.40;;;27.30;85.60;;;;;;4957654;28;20417;-80
2022/06/27 06:25:07;;;;;;;1.87;1.73;;;27.30;85.90;;;;;;4957782;28;20938;-80
2022/06/27 06:27:35;;;;;;;3.50;2.23;;;27.70;85.60;;;;;;4975074;28;20452;-81
2022/06/27 06:30:02;;;;;;;2.63;1.97;;;28.60;84.40;;;;;;4958073;28;20842;-80
2022/06/27 06:32:29;;;;;;;3.73;2.23;;;30.60;79.90;;;;;;4975707;28;20524;-80
2022/06/27 06:34:54;;;;;;;2.33;2.13;;;31.70;78.00;;;;;;4958545;28;20783;-79
2022/06/27 06:37:20;;;;;;;2.93;2.30;;;32.40;76.40;;;;;;4957430;28;20500;-79
2022/06/27 06:39:45;;;;;;;2.53;2.20;;;32.60;75.70;;;;;;4974267;28;20182;-80
2022/06/27 06:42:11;;;;;;;2.93;2.20;;;34.00;74.40;;;;;;4959369;28;20201;-80
2022/06/27 06:44:37;;;;;;;3.42;1.80;;;34.20;71.60;;;;;;4977677;28;20518;-80
2022/06/27 06:47:03;;;;;;;6.10;1.80;;;34.40;69.30;;;;;;4977663;28;20265;-80
2022/06/27 06:49:29;;;;;;;2.30;2.00;;;34.80;68.40;;;;;;4977545;28;20174;-80
2022/06/27 06:51:55;;;;;;;2.00;1.80;;;33.20;70.80;;;;;;4977348;28;20276;-80
2022/06/27 06:54:20;;;;;;;3.80;1.75;;;33.40;70.00;;;;;;4977385;28;20212;-79
2022/06/27 06:56:52;;;;;;;2.17;1.98;;;33.10;70.10;;;;;;4977326;28;20189;-80
2022/06/27 06:59:18;;;;;;;1.80;1.70;;;32.00;72.70;;;;;;4977289;28;20162;-79
2022/06/27 07:01:46;;;;;;;2.60;1.87;;;31.60;73.60;;;;;;4976865;28;20213;-79
2022/06/27 07:04:12;;;;;;;7.03;2.10;;;30.70;75.60;;;;;;4959548;28;20495;-79
2022/06/27 07:06:38;;;;;;;6.10;2.00;;;29.50;77.40;;;;;;4976696;28;20523;-79
2022/06/27 07:09:04;;;;;;;4.90;1.73;;;28.80;80.60;;;;;;4975910;28;20405;-79
2022/06/27 07:11:37;;;;;;;3.30;1.77;;;28.40;81.40;;;;;;4976624;28;20425;-79
2022/06/27 07:14:04;;;;;;;1.73;1.63;;;27.90;82.70;;;;;;4955541;28;20193;-79
2022/06/27 07:16:31;;;;;;;1.90;1.70;;;27.40;84.30;;;;;;4957176;29;20414;-79
2022/06/27 07:19:00;;;;;;;1.93;1.73;;;27.40;84.60;;;;;;4939953;29;21107;-79
2022/06/27 07:21:28;;;;;;;2.20;2.00;;;27.50;85.00;;;;;;4957391;29;20926;-79
2022/06/27 07:23:53;;;;;;;2.10;1.70;;;27.70;84.20;;;;;;4956652;29;20433;-79
2022/06/27 07:26:20;;;;;;;2.13;1.80;;;27.90;82.80;;;;;;4939268;29;20426;-79
2022/06/27 07:28:46;;;;;;;3.60;1.60;;;27.90;82.50;;;;;;4973857;28;20194;-79
2022/06/27 07:31:13;;;;;;;7.47;1.93;;;27.60;83.10;;;;;;4976417;28;20443;-79
2022/06/27 07:33:39;;;;;;;4.80;1.63;;;28.00;83.30;;;;;;4976353;28;20185;-79
2022/06/27 07:36:06;;;;;;;2.90;1.73;;;28.10;82.70;;;;;;4959491;28;20420;-79
2022/06/27 07:38:38;;;;;;;3.00;1.70;;;28.00;83.10;;;;;;4976008;28;20504;-79
2022/06/27 07:41:07;;;;;;;3.10;1.70;;;28.00;83.80;;;;;;4976804;28;20437;-79
2022/06/27 07:43:33;;;;;;;2.23;1.50;;;27.50;84.00;;;;;;4976380;28;20409;-79
2022/06/27 07:46:01;;;;;;;5.93;1.50;;;27.60;84.20;;;;;;4959350;28;20428;-79
2022/06/27 07:48:27;;;;;;;2.20;2.00;;;27.20;83.30;;;;;;4976149;28;20503;-79
2022/06/27 07:50:54;;;;;;;8.33;1.67;;;26.90;84.40;;;;;;4976477;28;20453;-79
2022/06/27 07:53:20;;;;;;;3.03;1.60;;;26.70;84.80;;;;;;4959098;28;20920;-81
2022/06/27 07:55:52;;;;;;;2.87;1.63;;;26.50;85.10;;;;;;4976281;28;20488;-79
2022/06/27 07:58:21;;;;;;;3.03;1.57;;;26.60;85.50;;;;;;4958943;28;20178;-79
2022/06/27 08:00:48;;;;;;;1.77;1.53;;;26.30;86.30;;;;;;4975990;28;20809;-79
2022/06/27 08:06:00;;;;;;;2.13;1.67;;;26.80;86.10;;;;;;4976023;28;20436;-79
2022/06/27 08:08:27;;;;;;;4.07;1.73;;;26.90;85.30;;;;;;4958073;28;20465;-79
2022/06/27 08:10:54;;;;;;;5.97;1.60;;;27.20;85.70;;;;;;4958157;28;20484;-78
2022/06/27 08:13:20;;;;;;;2.63;1.50;;;27.90;83.30;;;;;;4974626;28;20425;-79
2022/06/27 08:15:47;;;;;;;2.00;1.67;;;28.00;83.00;;;;;;4956721;28;20426;-79
2022/06/27 08:18:15;;;;;;;3.63;1.60;;;27.90;82.90;;;;;;4974741;28;20423;-80
2022/06/27 08:20:42;;;;;;;5.63;2.17;;;27.80;83.40;;;;;;4975169;28;20429;-79
2022/06/27 08:23:08;;;;;;;9.37;1.87;;;28.10;84.00;;;;;;4975859;28;20444;-79
2022/06/27 08:25:34;;;;;;;2.50;1.93;;;28.50;82.60;;;;;;4976760;28;20417;-79
2022/06/27 08:28:00;;;;;;;3.70;1.80;;;28.50;82.40;;;;;;4975832;28;20224;-79
2022/06/27 08:30:27;;;;;;;3.10;1.67;;;28.20;82.00;;;;;;4975402;28;20211;-79
2022/06/27 08:32:55;;;;;;;3.27;1.67;;;27.90;83.40;;;;;;4975595;28;20420;-79
2022/06/27 08:35:24;;;;;;;3.97;2.00;;;27.80;83.70;;;;;;4957838;28;20420;-79
2022/06/27 08:37:50;;;;;;;3.90;1.73;;;27.60;85.00;;;;;;4975118;28;20428;-79
2022/06/27 08:40:20;;;;;;;3.73;2.00;;;27.60;85.00;;;;;;4976477;28;20489;-79
2022/06/27 08:42:47;;;;;;;2.77;2.17;;;28.30;83.30;;;;;;4978690;28;20412;-79
2022/06/27 08:45:15;;;;;;;4.53;2.13;;;29.40;81.90;;;;;;4978889;28;20413;-79
2022/06/27 08:47:42;;;;;;;2.57;1.90;;;30.70;77.60;;;;;;4976161;28;20528;-80
2022/06/27 08:50:08;;;;;;;2.40;2.00;;;31.90;76.50;;;;;;4978547;28;20413;-79
2022/06/27 08:52:41;;;;;;;2.30;1.70;;;32.40;75.10;;;;;;4984640;28;20463;-79
2022/06/27 08:55:08;;;;;;;4.63;1.97;;;32.80;74.60;;;;;;4981818;28;20842;-79
2022/06/27 08:57:39;;;;;;;2.47;1.70;;;33.00;72.70;;;;;;4979304;28;20416;-79
2022/06/27 09:00:09;;;;;;;3.83;1.83;;;32.50;71.60;;;;;;4976606;28;20440;-79
2022/06/27 09:02:42;;;;;;;1.80;1.70;;;32.90;71.40;;;;;;4976551;28;20456;-79
2022/06/27 09:05:22;;;;;;;2.60;2.00;;;32.40;71.70;;;;;;4977459;28;20425;-79
2022/06/27 09:07:57;;;;;;;3.83;2.00;;;32.00;72.50;;;;;;4976548;28;20865;-79
2022/06/27 09:10:41;;;;;;;16.20;2.33;;;31.20;75.20;;;;;;4976586;28;20522;-79
2022/06/27 09:13:14;;;;;;;2.20;2.00;;;31.10;73.90;;;;;;4976775;28;20409;-79
2022/06/27 09:15:58;;;;;;;8.93;2.30;;;30.50;75.80;;;;;;4975936;28;20415;-79
2022/06/27 09:18:36;;;;;;;2.67;1.80;;;30.20;77.70;;;;;;4975620;28;20487;-79
2022/06/27 09:21:03;;;;;;;8.80;2.20;;;30.40;77.00;;;;;;4976737;28;20432;-79
2022/06/27 09:23:43;;;;;;;4.53;2.60;;;31.00;76.70;;;;;;4976916;28;20500;-79
2022/06/27 09:26:19;;;;;;;2.77;1.90;;;31.60;75.00;;;;;;4962746;28;20425;-79
2022/06/27 09:28:54;;;;;;;3.40;1.97;;;31.80;74.20;;;;;;4976595;28;20547;-79
2022/06/27 09:31:28;;;;;;;11.50;2.63;;;32.00;74.40;;;;;;4959192;28;20440;-79
2022/06/27 09:34:19;;;;;;;2.80;2.00;;;32.20;74.60;;;;;;4976694;28;20917;-79
2022/06/27 09:36:54;;;;;;;5.60;2.33;;;32.60;72.70;;;;;;4954287;28;20449;-79
2022/06/27 09:39:29;;;;;;;2.20;1.93;;;32.20;72.90;;;;;;4976026;28;20533;-79
2022/06/27 09:42:02;;;;;;;5.10;2.03;;;32.10;72.60;;;;;;4974749;28;20580;-79
2022/06/27 09:44:38;;;;;;;2.13;1.93;;;32.50;73.70;;;;;;4975400;28;20776;-80
2022/06/27 09:47:18;;;;;;;5.87;2.67;;;32.40;73.30;;;;;;4972026;28;20448;-79
2022/06/27 09:49:47;;;;;;;5.40;2.80;;;32.50;73.40;;;;;;4977240;28;20435;-79
2022/06/27 09:52:16;;;;;;;3.27;2.60;;;32.90;74.50;;;;;;4970791;28;20429;-80
2022/06/27 09:54:45;;;;;;;7.13;2.43;;;33.30;72.90;;;;;;4965886;28;20417;-79
2022/06/27 09:57:12;;;;;;;4.80;2.80;;;33.60;73.10;;;;;;4973860;28;20424;-80
2022/06/27 09:59:39;;;;;;;4.17;2.53;;;33.30;72.30;;;;;;4959068;28;20464;-80
2022/06/27 10:02:06;;;;;;;5.60;3.10;;;33.00;73.10;;;;;;4976183;28;20456;-79
2022/06/27 10:04:35;;;;;;;10.17;3.03;;;33.00;73.60;;;;;;4976461;28;20516;-79
2022/06/27 10:07:02;;;;;;;2.77;2.40;;;32.90;73.40;;;;;;4957957;28;20459;-79
2022/06/27 10:09:30;;;;;;;3.93;2.57;;;33.20;72.30;;;;;;4975432;28;20956;-79
2022/06/27 10:12:23;;;;;;;2.90;2.53;;;32.80;72.80;;;;;;4975389;28;20480;-79
2022/06/27 10:15:09;;;;;;;5.60;2.70;;;33.00;74.60;;;;;;4976515;28;20412;-80
2022/06/27 10:17:49;;;;;;;6.40;2.50;;;33.10;72.40;;;;;;4977692;28;20935;-80
2022/06/27 10:20:16;;;;;;;3.53;2.67;;;33.10;72.80;;;;;;4972620;28;20553;-80
2022/06/27 10:59:15;;;;;;;3.00;1.93;;;33.80;72.50;;;;;;5447510;23;20594;-82
2022/06/27 11:02:08;;;;;;;2.57;1.90;;;33.70;69.70;;;;;;4975121;28;20916;-79
2022/06/27 11:04:36;;;;;;;5.80;1.80;;;33.40;69.70;;;;;;4956491;29;20421;-78
2022/06/27 11:07:09;;;;;;;10.37;2.20;;;33.80;68.90;;;;;;4958439;29;20822;-77
2022/06/27 11:09:45;;;;;;;8.93;1.80;;;34.00;68.60;;;;;;4940940;29;20417;-78
2022/06/27 11:12:12;;;;;;;2.77;2.23;;;33.90;69.10;;;;;;4957053;29;20429;-82
2022/06/27 11:14:56;;;;;;;2.90;1.70;;;33.80;69.70;;;;;;4964427;28;20413;-82
2022/06/27 11:17:35;;;;;;;5.60;1.83;;;33.70;68.30;;;;;;4948064;28;20848;-82
2022/06/27 11:20:09;;;;;;;3.97;1.43;;;33.90;68.80;;;;;;4960064;28;20421;-78
2022/06/27 11:22:36;;;;;;;3.73;1.83;;;33.80;67.10;;;;;;4960417;28;20476;-78
2022/06/27 11:25:02;;;;;;;3.30;1.60;;;33.70;69.70;;;;;;4978108;28;20417;-78
2022/06/27 11:27:45;;;;;;;1.90;1.40;;;33.70;68.30;;;;;;4976570;28;20673;-78
2022/06/27 11:32:56;;;;;;;2.60;2.13;;;33.80;68.00;;;;;;4973694;28;20903;-78
2022/06/27 11:35:21;;;;;;;5.93;2.03;;;33.50;69.90;;;;;;4956087;28;20421;-77
2022/06/27 11:37:48;;;;;;;4.60;2.10;;;33.30;70.30;;;;;;4973232;28;20416;-77
2022/06/27 11:40:13;;;;;;;3.87;2.10;;;33.40;69.80;;;;;;4973456;28;20716;-78
2022/06/27 11:42:41;;;;;;;2.57;2.20;;;33.10;70.30;;;;;;4955998;28;20505;-79
2022/06/27 11:45:14;;;;;;;5.60;2.20;;;33.50;70.30;;;;;;4973433;28;20590;-79
2022/06/27 11:47:45;;;;;;;3.47;2.50;;;33.60;72.60;;;;;;4972945;28;20452;-77
2022/06/27 11:50:19;;;;;;;4.00;2.40;;;34.40;68.50;;;;;;4973320;28;20531;-78
2022/06/27 11:52:50;;;;;;;2.60;2.40;;;33.40;71.10;;;;;;4974732;28;20174;-78
2022/06/27 11:55:24;;;;;;;3.87;2.27;;;33.10;70.40;;;;;;4976044;28;20170;-78
2022/06/27 11:57:54;;;;;;;5.47;2.50;;;33.10;71.20;;;;;;4975048;28;20415;-78
2022/06/27 12:00:29;;;;;;;2.43;2.00;;;33.70;70.00;;;;;;4974572;28;20174;-78
2022/06/27 12:03:09;;;;;;;3.15;2.20;;;34.10;71.20;;;;;;4973624;28;20696;-77
2022/06/27 12:05:36;;;;;;;5.32;2.20;;;35.30;70.10;;;;;;4960413;28;20190;-78
2022/06/27 12:08:04;;;;;;;4.43;2.25;;;36.20;67.40;;;;;;4954614;28;20214;-77
2022/06/27 12:11:16;;;;;;;17.30;2.78;;;36.20;65.10;;;;;;4972873;28;20228;-77
2022/06/27 12:13:33;;;;;;;3.65;2.40;;;35.10;66.60;;;;;;4974673;28;20520;-77
2022/06/27 12:16:03;;;;;;;18.85;2.78;;;35.20;67.70;;;;;;4958700;28;20224;-77
2022/06/27 12:18:37;;;;;;;4.32;2.40;;;35.90;67.00;;;;;;4976775;28;20643;-77
2022/06/27 12:21:03;;;;;;;3.17;2.35;;;36.10;65.30;;;;;;4976705;28;20205;-77
2022/06/27 12:23:29;;;;;;;5.75;2.67;;;36.20;65.30;;;;;;4959080;28;20560;-77
2022/06/27 12:25:55;;;;;;;2.78;2.10;;;35.60;65.20;;;;;;4976769;28;20232;-77
2022/06/27 12:28:20;;;;;;;6.15;2.70;;;35.70;65.90;;;;;;4976299;28;20229;-77
2022/06/27 12:30:46;;;;;;;3.83;2.80;;;35.50;67.10;;;;;;4959221;28;20205;-77
2022/06/27 12:33:11;;;;;;;11.88;2.80;;;35.90;69.30;;;;;;4976600;28;20177;-77
2022/06/27 12:35:37;;;;;;;15.52;2.63;;;36.80;71.10;;;;;;4959385;28;20178;-77
2022/06/27 12:38:04;;;;;;;5.90;2.20;;;37.60;63.90;;;;;;4959333;28;20182;-78
2022/06/27 12:40:30;;;;;;;3.13;2.33;;;37.30;62.50;;;;;;4957457;28;20183;-78
2022/06/27 12:42:56;;;;;;;5.50;2.63;;;37.60;64.90;;;;;;4967873;28;20185;-78
2022/06/27 12:45:22;;;;;;;7.07;2.72;;;37.40;65.20;;;;;;4962629;28;20186;-78
2022/06/27 12:47:47;;;;;;;3.85;2.88;;;36.70;64.90;;;;;;4979338;28;20220;-79
2022/06/27 12:50:13;;;;;;;6.95;2.83;;;35.90;66.70;;;;;;4979062;28;20194;-78
2022/06/27 12:52:39;;;;;;;4.65;2.80;;;34.70;67.60;;;;;;4960785;28;20173;-80
2022/06/27 12:55:05;;;;;;;4.72;2.50;;;33.50;70.20;;;;;;4968818;28;21377;-79
2022/06/27 12:57:31;;;;;;;3.55;2.70;;;32.70;72.00;;;;;;4969919;28;20256;-79
2022/06/27 12:59:57;;;;;;;2.90;2.45;;;32.50;73.30;;;;;;4960806;28;20689;-78
2022/06/27 13:02:22;;;;;;;6.00;3.03;;;32.40;73.80;;;;;;4979214;28;20193;-77
2022/06/27 13:04:48;;;;;;;5.40;2.70;;;32.00;74.20;;;;;;4978713;28;20185;-78
2022/06/27 13:07:13;;;;;;;3.00;2.53;;;32.00;74.40;;;;;;4960757;28;20288;-78
2022/06/27 13:09:39;;;;;;;2.70;2.50;;;32.10;73.50;;;;;;4975205;28;20190;-78
2022/06/27 13:12:05;;;;;;;3.73;2.90;;;31.70;73.30;;;;;;4959219;29;20667;-77
2022/06/27 13:14:32;;;;;;;4.57;2.53;;;31.70;74.20;;;;;;4957712;28;20178;-79
2022/06/27 13:16:57;;;;;;;4.37;2.60;;;31.50;73.90;;;;;;4960221;28;20417;-77
2022/06/27 13:19:23;;;;;;;4.00;2.90;;;31.60;77.20;;;;;;4959159;28;20435;-80
2022/06/27 13:21:49;;;;;;;4.57;2.43;;;31.60;77.00;;;;;;4967022;28;20206;-77
2022/06/27 13:24:14;;;;;;;10.30;2.43;;;31.50;75.90;;;;;;4963291;28;20665;-81
2022/06/27 13:26:40;;;;;;;27.87;3.40;;;31.50;76.80;;;;;;4976357;28;20196;-81
2022/06/27 13:29:05;;;;;;;7.03;2.60;;;31.30;87.30;;;;;;4977930;28;20241;-78
2022/06/27 13:31:31;;;;;;;20.10;4.30;;;30.90;83.40;;;;;;4959423;28;20251;-77
2022/06/27 13:33:56;;;;;;;11.20;4.13;;;29.30;92.40;;;;;;4976137;28;20535;-74
2022/06/27 13:36:22;;;;;;;7.47;2.97;;;25.90;96.30;;;;;;4976753;28;20174;-75
2022/06/27 13:38:47;;;;;;;9.03;3.17;;;24.50;96.30;;;;;;4977309;28;20705;-74
2022/06/27 13:41:12;;;;;;;6.20;3.00;;;24.30;96.30;;;;;;4962205;28;20198;-76
2022/06/27 13:43:38;;;;;;;5.80;3.50;;;24.50;96.30;;;;;;4979677;28;20256;-76
2022/06/27 13:46:03;;;;;;;6.20;3.37;;;24.90;96.30;;;;;;4976150;28;20484;-77
2022/06/27 13:48:29;;;;;;;7.90;2.93;;;25.70;96.30;;;;;;4957736;29;20288;-78
2022/06/27 13:50:54;;;;;;;11.40;2.70;;;26.10;96.30;;;;;;4939903;29;20557;-79
2022/06/27 13:53:20;;;;;;;6.20;2.83;;;26.60;96.30;;;;;;4939291;29;20177;-79
2022/06/27 13:55:45;;;;;;;6.73;3.63;;;26.90;96.30;;;;;;4939073;29;20241;-79
2022/06/27 13:58:11;;;;;;;5.00;2.90;;;27.20;96.30;;;;;;4955781;29;20273;-79
2022/06/27 14:00:37;;;;;;;8.90;3.30;;;27.20;96.30;;;;;;4941093;28;20194;-77
2022/06/27 14:03:03;;;;;;;5.03;3.30;;;27.40;96.30;;;;;;4958804;28;20689;-78
2022/06/27 14:05:30;;;;;;;6.63;3.00;;;27.40;96.30;;;;;;4975637;28;20960;-78
2022/06/27 14:07:56;;;;;;;5.80;3.30;;;27.40;96.30;;;;;;4957890;28;20492;-79
2022/06/27 14:10:23;;;;;;;6.17;3.20;;;27.50;96.30;;;;;;4975443;28;20424;-79
2022/06/27 14:12:50;;;;;;;5.13;3.50;;;27.10;96.30;;;;;;4957700;28;20424;-78
2022/06/27 14:15:18;;;;;;;4.47;3.07;;;27.10;96.30;;;;;;4957854;28;20511;-78
2022/06/27 14:17:44;;;;;;;4.40;3.10;;;27.10;96.30;;;;;;4974757;28;20445;-77
2022/06/27 14:20:12;;;;;;;3.80;2.80;;;27.40;96.30;;;;;;4975270;28;20504;-77
2022/06/27 14:22:37;;;;;;;5.63;2.90;;;27.80;96.30;;;;;;4975082;28;20202;-77
2022/06/27 14:25:04;;;;;;;6.33;3.10;;;28.30;96.30;;;;;;4974704;28;20766;-77
2022/06/27 14:27:30;;;;;;;8.70;2.60;;;28.10;96.30;;;;;;4974332;28;20202;-77
2022/06/27 14:29:56;;;;;;;2.83;2.40;;;27.80;96.30;;;;;;4974580;28;20507;-77
2022/06/27 14:32:22;;;;;;;3.30;2.40;;;27.40;96.30;;;;;;4957394;28;20441;-78
2022/06/27 14:34:48;;;;;;;3.70;2.40;;;27.20;96.30;;;;;;4975108;28;20975;-77
2022/06/27 14:37:13;;;;;;;6.00;2.47;;;26.80;96.30;;;;;;4975226;28;20197;-80
2022/06/27 14:39:39;;;;;;;4.83;2.30;;;26.50;96.30;;;;;;4974571;28;20189;-81
2022/06/27 14:42:04;;;;;;;7.93;2.77;;;26.20;96.30;;;;;;4974679;28;20201;-80
2022/06/27 14:44:32;;;;;;;5.27;2.27;;;26.00;96.30;;;;;;4975234;28;20182;-79
2022/06/27 14:46:58;;;;;;;5.37;2.40;;;25.80;96.30;;;;;;4963780;28;20205;-80
2022/06/27 14:49:23;;;;;;;5.43;2.20;;;25.70;96.30;;;;;;4977584;28;20432;-80
2022/06/27 14:51:49;;;;;;;3.67;2.03;;;25.50;96.30;;;;;;4976544;28;20429;-80
2022/06/27 14:54:16;;;;;;;4.83;2.40;;;25.40;96.30;;;;;;4978635;28;20174;-81
2022/06/27 14:56:42;;;;;;;4.50;2.60;;;25.20;96.30;;;;;;4980992;28;20237;-78
2022/06/27 14:59:07;;;;;;;4.73;2.80;;;25.30;96.30;;;;;;4960626;28;20937;-78
2022/06/27 15:01:33;;;;;;;4.87;3.30;;;25.30;96.30;;;;;;4961815;28;20228;-81
2022/06/27 15:03:58;;;;;;;3.73;2.97;;;25.40;96.30;;;;;;4962156;28;20533;-80
2022/06/27 15:06:24;;;;;;;4.33;2.50;;;25.20;96.30;;;;;;4964763;28;20541;-78
2022/06/27 15:08:50;;;;;;;7.33;2.97;;;24.90;96.30;;;;;;4977694;28;20201;-78
2022/06/27 15:14:00;;;;;;;6.97;3.10;;;24.90;96.30;;;;;;4961202;28;20451;-77
2022/06/27 15:16:31;;;;;;;3.70;3.13;;;24.80;96.30;;;;;;4972334;28;20418;-78
2022/06/27 15:18:57;;;;;;;3.70;3.00;;;24.80;96.30;;;;;;4973972;28;20158;-77
2022/06/27 15:21:23;;;;;;;5.03;3.00;;;24.80;96.30;;;;;;4956240;28;20532;-77
2022/06/27 15:23:48;;;;;;;13.07;3.30;;;24.80;96.30;;;;;;4972094;28;20741;-77
2022/06/27 15:26:13;;;;;;;5.80;2.77;;;24.90;96.30;;;;;;4956227;28;20316;-77
2022/06/27 15:28:39;;;;;;;7.93;2.77;;;24.80;96.30;;;;;;4973434;28;20217;-77
2022/06/27 15:31:04;;;;;;;4.50;3.30;;;24.60;96.30;;;;;;4973452;28;20190;-77
2022/06/27 15:33:30;;;;;;;5.27;3.53;;;24.00;96.30;;;;;;4956316;28;20206;-80
2022/06/27 15:35:55;;;;;;;4.90;3.17;;;23.30;96.30;;;;;;4975099;28;20170;-77
2022/06/27 15:38:21;;;;;;;6.20;3.60;;;22.60;96.30;;;;;;4973537;28;20189;-78
2022/06/27 15:40:47;;;;;;;5.37;3.27;;;22.30;96.30;;;;;;4973855;28;20206;-78
2022/06/27 15:43:12;;;;;;;3.63;3.27;;;22.30;96.30;;;;;;4956803;28;20174;-78
2022/06/27 15:45:39;;;;;;;8.43;3.23;;;22.20;96.30;;;;;;4939699;29;20514;-77
2022/06/27 15:48:05;;;;;;;5.50;3.20;;;22.20;96.30;;;;;;4954777;28;20229;-74
2022/06/27 15:50:31;;;;;;;5.63;3.00;;;22.20;96.30;;;;;;4957260;29;20442;-74
2022/06/27 15:52:57;;;;;;;4.50;3.40;;;22.40;96.30;;;;;;4956482;29;20454;-76
2022/06/27 15:55:23;;;;;;;6.77;3.90;;;22.60;96.30;;;;;;4941050;29;20402;-78
2022/06/27 15:57:49;;;;;;;5.37;2.80;;;22.70;96.30;;;;;;4957521;28;20582;-78
2022/06/27 16:00:15;;;;;;;8.90;3.33;;;23.00;96.30;;;;;;4957838;29;20950;-77
2022/06/27 16:02:42;;;;;;;7.67;3.23;;;23.40;96.30;;;;;;4960268;29;20182;-79
2022/06/27 16:05:10;;;;;;;5.37;3.30;;;23.90;96.30;;;;;;4967582;28;20456;-79
2022/06/27 16:07:36;;;;;;;3.60;2.63;;;24.60;96.30;;;;;;4981439;28;20457;-78
2022/06/27 16:10:02;;;;;;;7.53;2.70;;;25.10;96.30;;;;;;4982217;28;20424;-79
2022/06/27 16:12:27;;;;;;;5.47;3.40;;;25.30;96.30;;;;;;4982104;28;20206;-80
2022/06/27 16:14:53;;;;;;;2.80;2.43;;;25.50;96.30;;;;;;4982809;28;20182;-80
2022/06/27 16:17:18;;;;;;;3.43;2.67;;;25.30;96.30;;;;;;4967339;28;20193;-79
2022/06/27 16:19:44;;;;;;;6.90;2.83;;;25.30;96.30;;;;;;4964002;28;20209;-79
2022/06/27 16:22:09;;;;;;;8.00;2.70;;;25.50;96.30;;;;;;4981331;28;20682;-79
2022/06/27 16:24:35;;;;;;;5.63;2.50;;;25.80;96.30;;;;;;4981160;28;20186;-79
2022/06/27 16:27:01;;;;;;;4.40;2.50;;;25.80;96.30;;;;;;4980726;28;20728;-80
2022/06/27 16:29:26;;;;;;;4.47;3.00;;;25.90;96.30;;;;;;4965468;28;20174;-78
2022/06/27 16:31:52;;;;;;;8.20;4.13;;;26.20;96.30;;;;;;4983533;28;20196;-79
2022/06/27 16:34:17;;;;;;;16.93;12.60;;;26.40;96.30;;;;;;4982442;28;20181;-80
2022/06/27 16:36:43;;;;;;;12.63;6.47;;;26.40;96.30;;;;;;4965488;28;20170;-79
2022/06/27 16:39:10;;;;;;;8.40;2.97;;;26.60;96.30;;;;;;4981650;28;20658;-78
2022/06/27 16:44:21;;;;;;;3.30;2.33;;;26.70;96.30;;;;;;4956841;29;20404;-76
2022/06/27 16:46:47;;;;;;;7.57;3.03;;;26.80;96.30;;;;;;4956761;29;20410;-77
2022/06/27 16:49:13;;;;;;;5.03;2.40;;;27.20;96.30;;;;;;4956258;29;20464;-77
2022/06/27 16:51:39;;;;;;;5.80;2.57;;;27.60;94.60;;;;;;4956764;29;20241;-77
2022/06/27 16:54:05;;;;;;;7.80;2.50;;;27.80;94.30;;;;;;4956683;29;20170;-76
2022/06/27 16:56:30;;;;;;;6.00;2.50;;;27.90;94.00;;;;;;4957011;29;20421;-76
2022/06/27 16:58:56;;;;;;;6.20;2.40;;;27.90;93.90;;;;;;4955425;28;20249;-76
2022/06/27 17:01:21;;;;;;;7.43;2.80;;;28.10;96.30;;;;;;4939200;29;20202;-76
2022/06/27 17:03:47;;;;;;;10.23;2.73;;;27.90;96.30;;;;;;4956688;29;20194;-76
2022/06/27 17:06:13;;;;;;;3.53;2.20;;;27.70;96.30;;;;;;4940500;29;20257;-77
2022/06/27 17:08:40;;;;;;;9.43;3.00;;;27.50;96.30;;;;;;4960958;29;20630;-77
2022/06/27 17:11:05;;;;;;;4.00;2.73;;;27.30;96.30;;;;;;4959219;29;20434;-76
2022/06/27 17:13:31;;;;;;;3.80;2.40;;;27.30;96.30;;;;;;4958552;28;20421;-76
2022/06/27 17:15:59;;;;;;;6.27;2.40;;;27.10;96.30;;;;;;4958081;28;20188;-76
2022/06/27 17:18:25;;;;;;;6.70;2.53;;;27.10;96.30;;;;;;4974951;28;20178;-76
2022/06/27 17:20:50;;;;;;;5.00;2.40;;;27.00;96.30;;;;;;4975216;28;20815;-76
2022/06/27 17:23:16;;;;;;;7.53;2.43;;;26.90;96.30;;;;;;4976025;28;20219;-76
2022/06/27 17:25:42;;;;;;;9.30;2.80;;;26.90;96.30;;;;;;4975999;28;20177;-76
2022/06/27 17:28:08;;;;;;;7.87;3.30;;;26.80;96.30;;;;;;4975338;28;20661;-76
2022/06/27 17:30:35;;;;;;;3.83;2.50;;;26.80;96.30;;;;;;4975491;28;20170;-76
2022/06/27 17:33:01;;;;;;;10.33;3.20;;;26.50;96.30;;;;;;4975508;28;20822;-77
2022/06/27 17:35:27;;;;;;;7.40;3.30;;;26.40;96.30;;;;;;4976204;28;20939;-78
2022/06/27 17:37:53;;;;;;;4.03;2.77;;;26.30;96.30;;;;;;4974297;28;20421;-77
2022/06/27 17:40:18;;;;;;;4.47;2.70;;;26.30;96.30;;;;;;4957779;28;20937;-77
2022/06/27 17:42:44;;;;;;;9.93;2.83;;;26.20;96.30;;;;;;4976012;28;20181;-77
2022/06/27 17:45:13;;;;;;;8.00;3.13;;;26.10;96.30;;;;;;4954452;28;20312;-77
2022/06/27 17:47:39;;;;;;;4.67;2.93;;;26.00;96.30;;;;;;4974804;28;20748;-77
2022/06/27 17:50:05;;;;;;;5.70;3.00;;;26.10;96.30;;;;;;4957578;28;20417;-78
2022/06/27 17:52:31;;;;;;;7.10;2.83;;;26.10;96.30;;;;;;4957429;28;20979;-78
2022/06/27 17:54:56;;;;;;;4.50;3.20;;;26.10;96.30;;;;;;4976478;28;20425;-79
2022/06/27 17:57:22;;;;;;;9.83;2.93;;;25.90;96.30;;;;;;4976346;28;20182;-77
2022/06/27 17:59:47;;;;;;;6.37;2.80;;;25.90;96.30;;;;;;4972643;28;20207;-78
2022/06/27 18:02:13;;;;;;;3.60;2.10;;;25.90;96.30;;;;;;4977580;28;20283;-77
2022/06/27 18:04:40;;;;;;;5.60;2.13;;;26.00;96.30;;;;;;4975318;28;20645;-79
2022/06/27 18:07:07;;;;;;;10.10;2.70;;;25.90;96.30;;;;;;4977293;28;20225;-78
2022/06/27 18:09:33;;;;;;;3.03;2.30;;;25.90;96.30;;;;;;4978103;28;20405;-79
2022/06/27 18:12:00;;;;;;;9.33;2.40;;;25.80;96.30;;;;;;4978088;28;20440;-76
2022/06/27 18:14:26;;;;;;;3.57;1.93;;;25.60;96.30;;;;;;4976078;28;20209;-78
2022/06/27 18:16:51;;;;;;;2.90;2.53;;;25.30;96.30;;;;;;4974408;28;20417;-78